createdAt,value
2018-09-05T00:02:13.617Z,100555.00
2018-09-05T00:04:43.213Z,100558.06
2018-09-05T00:07:12.882Z,100552.15
2018-09-05T00:09:42.511Z,100554.52
2018-09-05T00:12:12.141Z,100548.34
2018-09-05T00:14:41.756Z,100548.58
2018-09-05T00:17:11.422Z,100542.59
2018-09-05T00:19:41.015Z,100546.30
2018-09-05T00:22:10.698Z,100536.41
2018-09-05T00:24:40.313Z,100532.05
2018-09-05T00:27:10.109Z,100532.58
2018-09-05T00:29:39.699Z,100531.22
2018-09-05T00:32:09.325Z,100530.84
2018-09-05T00:34:38.857Z,100535.38
2018-09-05T00:37:08.609Z,100539.88
2018-09-05T00:39:38.319Z,100544.08
2018-09-05T00:42:07.972Z,100544.19
2018-09-05T00:44:37.711Z,100541.70
2018-09-05T00:47:07.282Z,100549.69
2018-09-05T00:49:36.883Z,100546.27
2018-09-05T00:52:06.619Z,100547.79
2018-09-05T00:54:36.158Z,100544.56
2018-09-05T00:57:05.817Z,100545.61
2018-09-05T00:59:35.400Z,100545.76
2018-09-05T01:02:05.079Z,100540.66
2018-09-05T01:04:34.620Z,100545.50
2018-09-05T01:07:26.952Z,100543.49
2018-09-05T01:09:56.600Z,100544.89
2018-09-05T01:12:26.624Z,100552.61
2018-09-05T01:14:56.566Z,100556.03
2018-09-05T01:17:26.224Z,100546.80
2018-09-05T01:19:55.860Z,100547.36
2018-09-05T01:22:25.687Z,100549.57
2018-09-05T01:24:55.435Z,100546.52
2018-09-05T01:27:25.001Z,100550.41
2018-09-05T01:29:54.635Z,100548.77
2018-09-05T01:32:24.374Z,100551.64
2018-09-05T01:34:53.977Z,100551.30
2018-09-05T01:37:23.549Z,100554.23
2018-09-05T01:39:53.710Z,100550.62
2018-09-05T01:42:23.317Z,100550.10
2018-09-05T01:44:52.845Z,100546.47
2018-09-05T01:47:22.447Z,100546.47
2018-09-05T01:49:52.114Z,100549.16
2018-09-05T01:52:21.669Z,100543.25
2018-09-05T01:54:51.323Z,100541.28
2018-09-05T01:57:20.931Z,100548.51
2018-09-05T01:59:50.499Z,100538.58
2018-09-05T02:02:20.102Z,100538.23
2018-09-05T02:04:49.851Z,100542.43
2018-09-05T02:07:19.463Z,100548.75
2018-09-05T02:09:49.327Z,100555.20
2018-09-05T02:12:19.064Z,100551.66
2018-09-05T02:14:55.545Z,100543.81
2018-09-05T02:17:25.160Z,100548.06
2018-09-05T02:19:54.721Z,100550.22
2018-09-05T02:22:24.258Z,100553.13
2018-09-05T02:24:53.877Z,100557.56
2018-09-05T02:27:23.518Z,100551.54
2018-09-05T02:29:53.156Z,100548.48
2018-09-05T02:32:22.805Z,100554.84
2018-09-05T02:34:52.423Z,100550.56
2018-09-05T02:37:22.117Z,100556.72
2018-09-05T02:39:51.676Z,100546.61
2018-09-05T02:42:21.431Z,100546.27
2018-09-05T02:44:51.127Z,100548.41
2018-09-05T02:47:20.766Z,100548.81
2018-09-05T02:49:50.359Z,100555.43
2018-09-05T02:52:20.050Z,100552.64
2018-09-05T02:54:49.691Z,100546.93
2018-09-05T02:57:19.309Z,100555.23
2018-09-05T02:59:48.977Z,100544.78
2018-09-05T03:02:18.671Z,100549.27
2018-09-05T03:04:48.220Z,100554.28
2018-09-05T03:07:17.839Z,100551.56
2018-09-05T03:09:50.333Z,100553.33
2018-09-05T03:12:20.464Z,100556.13
2018-09-05T03:14:51.529Z,100560.05
2018-09-05T03:17:21.785Z,100554.75
2018-09-05T03:19:51.355Z,100554.92
2018-09-05T03:22:20.958Z,100552.31
2018-09-05T03:24:50.552Z,100552.88
2018-09-05T03:27:20.165Z,100555.92
2018-09-05T03:29:49.816Z,100558.27
2018-09-05T03:32:19.500Z,100554.71
2018-09-05T03:34:49.066Z,100552.73
2018-09-05T03:37:18.746Z,100555.66
2018-09-05T03:39:48.315Z,100557.45
2018-09-05T03:42:17.922Z,100553.05
2018-09-05T03:44:47.948Z,100551.71
2018-09-05T03:47:17.550Z,100551.21
2018-09-05T03:49:47.240Z,100553.26
2018-09-05T03:52:16.769Z,100552.90
2018-09-05T03:54:46.363Z,100555.71
2018-09-05T03:57:16.010Z,100555.64
2018-09-05T03:59:45.730Z,100557.22
2018-09-05T04:02:15.495Z,100557.27
2018-09-05T04:04:45.033Z,100554.90
2018-09-05T04:07:14.674Z,100561.81
2018-09-05T04:09:44.290Z,100558.67
2018-09-05T04:12:14.010Z,100561.36
2018-09-05T04:14:43.566Z,100563.55
2018-09-05T04:17:13.211Z,100559.31
2018-09-05T04:19:42.853Z,100557.09
2018-09-05T04:22:12.446Z,100558.67
2018-09-05T04:24:42.017Z,100562.09
2018-09-05T04:27:11.674Z,100561.23
2018-09-05T04:29:41.301Z,100564.50
2018-09-05T04:32:17.727Z,100564.79
2018-09-05T04:34:47.416Z,100557.73
2018-09-05T04:37:18.056Z,100557.91
2018-09-05T04:39:47.738Z,100562.41
2018-09-05T04:42:17.329Z,100567.45
2018-09-05T04:44:46.894Z,100565.62
2018-09-05T04:47:16.515Z,100567.53
2018-09-05T04:49:46.133Z,100569.92
2018-09-05T04:52:15.707Z,100567.81
2018-09-05T04:54:45.459Z,100568.98
2018-09-05T04:57:15.048Z,100566.70
2018-09-05T04:59:44.815Z,100570.27
2018-09-05T05:02:14.437Z,100565.28
2018-09-05T05:04:50.611Z,100560.49
2018-09-05T05:07:20.215Z,100561.38
2018-09-05T05:09:49.804Z,100563.57
2018-09-05T05:12:19.419Z,100565.51
2018-09-05T05:14:49.109Z,100571.55
2018-09-05T05:17:18.767Z,100571.09
2018-09-05T05:19:48.441Z,100572.32
2018-09-05T05:22:18.181Z,100572.71
2018-09-05T05:24:50.874Z,100571.47
2018-09-05T05:27:20.416Z,100568.41
2018-09-05T05:29:50.947Z,100568.19
2018-09-05T05:32:20.676Z,100563.45
2018-09-05T05:34:50.314Z,100561.50
2018-09-05T05:37:19.962Z,100563.48
2018-09-05T05:39:49.674Z,100562.17
2018-09-05T05:42:19.545Z,100566.05
2018-09-05T05:44:49.162Z,100568.17
2018-09-05T05:47:18.801Z,100571.42
2018-09-05T05:49:48.355Z,100575.35
2018-09-05T05:52:17.976Z,100562.94
2018-09-05T05:54:47.556Z,100555.94
2018-09-05T05:57:17.235Z,100559.51
2018-09-05T05:59:46.885Z,100560.66
2018-09-05T06:02:16.448Z,100556.53
2018-09-05T06:04:46.176Z,100567.33
2018-09-05T06:07:15.720Z,100570.91
2018-09-05T06:09:45.351Z,100564.81
2018-09-05T06:12:15.159Z,100564.74
2018-09-05T06:14:44.716Z,100569.00
2018-09-05T06:17:14.302Z,100571.27
2018-09-05T06:19:44.026Z,100572.70
2018-09-05T06:22:13.775Z,100572.36
2018-09-05T06:24:43.584Z,100570.84
2018-09-05T06:27:13.223Z,100579.63
2018-09-05T06:29:43.059Z,100575.05
2018-09-05T06:32:12.712Z,100573.42
2018-09-05T06:34:42.547Z,100566.05
2018-09-05T06:37:12.178Z,100568.70
2018-09-05T06:39:41.888Z,100571.12
2018-09-05T06:42:11.474Z,100575.36
2018-09-05T06:44:41.192Z,100578.62
2018-09-05T06:47:11.245Z,100569.95
2018-09-05T06:49:40.978Z,100573.34
2018-09-05T06:52:10.788Z,100576.94
2018-09-05T06:54:40.426Z,100578.09
2018-09-05T06:57:10.031Z,100571.57
2018-09-05T06:59:39.568Z,100580.31
2018-09-05T07:02:09.209Z,100579.04
2018-09-05T07:04:38.829Z,100582.50
2018-09-05T07:07:08.506Z,100582.03
2018-09-05T07:09:38.096Z,100584.77
2018-09-05T07:12:07.750Z,100583.91
2018-09-05T07:14:37.406Z,100582.53
2018-09-05T07:17:07.442Z,100581.35
2018-09-05T07:19:37.247Z,100588.77
2018-09-05T07:22:07.093Z,100587.69
2018-09-05T07:24:36.729Z,100591.25
2018-09-05T07:27:06.511Z,100591.05
2018-09-05T07:29:36.119Z,100590.23
2018-09-05T07:32:05.768Z,100597.80
2018-09-05T07:34:35.391Z,100591.17
2018-09-05T07:37:05.145Z,100588.80
2018-09-05T07:39:34.727Z,100592.30
2018-09-05T07:42:04.354Z,100590.60
2018-09-05T07:44:34.204Z,100591.14
2018-09-05T07:47:03.935Z,100592.01
2018-09-05T07:49:33.552Z,100592.37
2018-09-05T07:52:03.286Z,100589.79
2018-09-05T07:54:33.004Z,100591.28
2018-09-05T07:59:31.423Z,100593.98
2018-09-05T08:02:01.117Z,100589.45
2018-09-05T08:04:30.825Z,100595.94
2018-09-05T08:07:00.483Z,100590.26
2018-09-05T08:09:30.393Z,100594.83
2018-09-05T08:12:00.746Z,100592.48
2018-09-05T08:14:30.511Z,100590.39
2018-09-05T08:17:00.180Z,100591.53
2018-09-05T08:19:30.772Z,100598.23
2018-09-05T08:22:01.451Z,100596.61
2018-09-05T08:24:31.154Z,100596.66
2018-09-05T08:27:00.791Z,100595.23
2018-09-05T08:29:30.505Z,100596.42
2018-09-05T08:32:00.185Z,100589.14
2018-09-05T08:34:29.869Z,100594.30
2018-09-05T08:36:59.989Z,100592.37
2018-09-05T08:39:29.244Z,100581.82
2018-09-05T08:41:58.904Z,100587.27
2018-09-05T08:44:28.629Z,100585.91
2018-09-05T08:46:58.373Z,100580.78
2018-09-05T08:49:27.974Z,100578.33
2018-09-05T08:51:57.581Z,100582.92
2018-09-05T08:54:27.269Z,100580.97
2018-09-05T08:56:57.624Z,100584.82
2018-09-05T08:59:27.320Z,100581.27
2018-09-05T09:01:57.022Z,100579.34
2018-09-05T09:04:26.956Z,100579.81
2018-09-05T09:06:56.668Z,100579.81
2018-09-05T09:09:26.351Z,100572.66
2018-09-05T09:11:56.023Z,100569.52
2018-09-05T09:14:25.670Z,100567.61
2018-09-05T09:16:55.380Z,100568.59
2018-09-05T09:19:25.028Z,100570.80
2018-09-05T09:21:54.723Z,100563.15
2018-09-05T09:24:24.446Z,100560.09
2018-09-05T09:26:54.169Z,100553.42
2018-09-05T09:29:23.748Z,100553.17
2018-09-05T09:31:53.520Z,100548.77
2018-09-05T09:34:23.184Z,100549.83
2018-09-05T09:36:52.881Z,100553.60
2018-09-05T09:39:23.077Z,100548.27
2018-09-05T09:41:52.775Z,100548.97
2018-09-05T09:44:22.432Z,100543.97
2018-09-05T09:46:52.024Z,100542.19
2018-09-05T09:49:21.901Z,100545.53
2018-09-05T09:51:55.743Z,100535.92
2018-09-05T09:54:25.479Z,100544.63
2018-09-05T09:56:55.153Z,100540.70
2018-09-05T09:59:24.857Z,100533.91
2018-09-05T10:01:59.673Z,100533.00
2018-09-05T10:04:34.577Z,100534.58
2018-09-05T10:07:09.380Z,100530.11
2018-09-05T10:09:44.370Z,100530.02
2018-09-05T10:12:19.133Z,100521.55
2018-09-05T10:14:57.855Z,100523.16
2018-09-05T10:17:34.068Z,100516.23
2018-09-05T10:20:04.015Z,100519.19
2018-09-05T10:22:34.048Z,100519.70
2018-09-05T10:25:03.641Z,100513.84
2018-09-05T10:27:33.243Z,100511.73
2018-09-05T10:30:03.108Z,100509.69
2018-09-05T10:32:32.760Z,100506.73
2018-09-05T10:35:02.502Z,100502.81
2018-09-05T10:37:32.164Z,100506.06
2018-09-05T10:40:01.822Z,100493.85
2018-09-05T10:42:31.468Z,100498.64
2018-09-05T10:45:01.220Z,100492.88
2018-09-05T10:47:31.046Z,100488.88
2018-09-05T10:50:00.761Z,100498.17
2018-09-05T10:52:30.487Z,100494.53
2018-09-05T10:55:00.293Z,100477.72
2018-09-05T10:57:30.179Z,100484.82
2018-09-05T10:59:59.884Z,100490.42
2018-09-05T11:02:29.577Z,100485.21
2018-09-05T11:04:59.218Z,100484.19
2018-09-05T11:07:28.877Z,100486.52
2018-09-05T11:09:58.632Z,100478.34
2018-09-05T11:12:28.427Z,100477.14
2018-09-05T11:14:58.252Z,100473.64
2018-09-05T11:17:27.948Z,100478.55
2018-09-05T11:19:57.708Z,100476.28
2018-09-05T11:22:27.415Z,100476.14
2018-09-05T11:24:57.105Z,100476.44
2018-09-05T11:27:26.876Z,100471.63
2018-09-05T11:29:56.596Z,100473.28
2018-09-05T11:32:26.393Z,100470.87
2018-09-05T11:34:56.909Z,100470.61
2018-09-05T11:37:27.017Z,100466.38
2018-09-05T11:39:56.992Z,100463.72
2018-09-05T11:42:26.818Z,100459.84
2018-09-05T11:44:56.558Z,100458.73
2018-09-05T11:47:26.239Z,100463.22
2018-09-05T11:49:56.026Z,100458.13
2018-09-05T11:52:25.764Z,100455.21
2018-09-05T11:54:55.622Z,100453.18
2018-09-05T11:57:25.347Z,100450.34
2018-09-05T11:59:55.041Z,100446.22
2018-09-05T12:02:25.295Z,100444.90
2018-09-05T12:04:55.025Z,100449.90
2018-09-05T12:07:24.735Z,100449.34
2018-09-05T12:09:54.528Z,100446.87
2018-09-05T12:12:24.226Z,100444.35
2018-09-05T12:14:54.041Z,100445.34
2018-09-05T12:17:23.931Z,100439.22
2018-09-05T12:19:53.646Z,100442.89
2018-09-05T12:22:23.305Z,100441.30
2018-09-05T12:24:52.990Z,100438.23
2018-09-05T12:27:22.663Z,100441.26
2018-09-05T12:29:52.337Z,100439.94
2018-09-05T12:32:21.956Z,100439.78
2018-09-05T12:34:51.613Z,100434.96
2018-09-05T12:37:21.281Z,100429.77
2018-09-05T12:39:50.983Z,100421.83
2018-09-05T12:42:20.726Z,100428.05
2018-09-05T12:44:50.448Z,100417.28
2018-09-05T12:47:20.052Z,100424.28
2018-09-05T12:49:49.884Z,100428.34
2018-09-05T12:52:19.685Z,100413.77
2018-09-05T12:54:49.537Z,100408.60
2018-09-05T12:57:19.300Z,100408.41
2018-09-05T12:59:49.070Z,100411.38
2018-09-05T13:02:18.937Z,100412.38
2018-09-05T13:04:48.562Z,100408.20
2018-09-05T13:07:18.289Z,100403.64
2018-09-05T13:09:48.055Z,100398.61
2018-09-05T13:12:17.680Z,100400.08
2018-09-05T13:14:47.509Z,100407.13
2018-09-05T13:17:17.168Z,100400.44
2018-09-05T13:19:46.808Z,100401.91
2018-09-05T13:22:16.461Z,100390.56
2018-09-05T13:24:46.205Z,100394.41
2018-09-05T13:27:16.254Z,100381.88
2018-09-05T13:29:45.891Z,100387.16
2018-09-05T13:32:15.533Z,100389.33
2018-09-05T13:34:45.275Z,100383.80
2018-09-05T13:37:15.938Z,100377.27
2018-09-05T13:39:45.671Z,100371.81
2018-09-05T13:42:15.425Z,100371.06
2018-09-05T13:44:45.482Z,100366.72
2018-09-05T13:47:15.139Z,100378.75
2018-09-05T13:49:44.871Z,100382.77
2018-09-05T13:52:19.612Z,100372.87
2018-09-05T13:54:49.333Z,100370.09
2018-09-05T13:57:18.987Z,100362.63
2018-09-05T13:59:48.660Z,100373.78
2018-09-05T14:02:18.441Z,100378.39
2018-09-05T14:04:48.214Z,100375.09
2018-09-05T14:07:17.961Z,100367.73
2018-09-05T14:09:47.653Z,100365.84
2018-09-05T14:12:17.381Z,100362.69
2018-09-05T14:14:47.037Z,100366.42
2018-09-05T14:17:16.840Z,100367.14
2018-09-05T14:19:46.693Z,100367.08
2018-09-05T14:22:16.425Z,100356.70
2018-09-05T14:24:46.032Z,100355.77
2018-09-05T14:27:15.926Z,100367.66
2018-09-05T14:29:45.576Z,100358.55
2018-09-05T14:32:15.349Z,100357.92
2018-09-05T14:34:44.960Z,100361.97
2018-09-05T14:37:14.662Z,100358.07
2018-09-05T14:39:44.456Z,100358.23
2018-09-05T14:42:14.375Z,100361.84
2018-09-05T14:44:44.025Z,100351.95
2018-09-05T14:47:14.250Z,100354.63
2018-09-05T14:49:44.109Z,100346.65
2018-09-05T14:52:14.007Z,100336.95
2018-09-05T14:54:43.840Z,100343.02
2018-09-05T14:57:13.591Z,100338.48
2018-09-05T14:59:43.274Z,100333.91
2018-09-05T15:02:12.939Z,100335.75
2018-09-05T15:04:42.655Z,100335.28
2018-09-05T15:07:12.495Z,100331.67
2018-09-05T15:09:42.170Z,100332.09
2018-09-05T15:12:11.968Z,100323.91
2018-09-05T15:14:41.660Z,100324.01
2018-09-05T15:17:11.335Z,100321.56
2018-09-05T15:19:41.062Z,100317.34
2018-09-05T15:22:10.817Z,100317.14
2018-09-05T15:24:40.503Z,100316.02
2018-09-05T15:27:10.101Z,100311.77
2018-09-05T15:29:39.745Z,100315.92
2018-09-05T15:32:09.339Z,100317.26
2018-09-05T15:34:39.641Z,100303.40
2018-09-05T15:37:09.258Z,100307.97
2018-09-05T15:39:38.884Z,100300.67
2018-09-05T15:42:08.502Z,100305.69
2018-09-05T15:44:38.122Z,100306.67
2018-09-05T15:47:07.768Z,100311.89
2018-09-05T15:49:37.404Z,100299.80
2018-09-05T15:52:07.108Z,100299.31
2018-09-05T15:54:42.096Z,100294.11
2018-09-05T15:57:12.828Z,100307.05
2018-09-05T15:59:55.492Z,100303.16
2018-09-05T16:04:58.075Z,100310.44
2018-09-05T16:07:27.791Z,100297.19
2018-09-05T16:09:57.418Z,100299.78
2018-09-05T16:12:27.082Z,100298.58
2018-09-05T16:14:56.790Z,100304.91
2018-09-05T16:17:26.441Z,100304.89
2018-09-05T16:19:56.029Z,100307.30
2018-09-05T16:22:26.412Z,100296.53
2018-09-05T16:24:56.102Z,100296.05
2018-09-05T16:27:25.835Z,100287.20
2018-09-05T16:29:55.569Z,100294.00
2018-09-05T16:32:25.429Z,100293.55
2018-09-05T16:34:55.118Z,100290.20
2018-09-05T16:37:25.084Z,100295.16
2018-09-05T16:39:54.814Z,100288.46
2018-09-05T16:42:24.581Z,100289.80
2018-09-05T16:44:54.389Z,100285.23
2018-09-05T16:47:24.135Z,100287.34
2018-09-05T16:49:53.859Z,100294.09
2018-09-05T16:52:27.525Z,100280.95
2018-09-05T16:54:57.568Z,100280.39
2018-09-05T16:57:27.596Z,100286.00
2018-09-05T16:59:57.248Z,100283.52
2018-09-05T17:02:27.052Z,100282.72
2018-09-05T17:04:56.676Z,100286.77
2018-09-05T17:07:26.396Z,100287.21
2018-09-05T17:09:56.172Z,100297.10
2018-09-05T17:12:25.899Z,100284.72
2018-09-05T17:14:55.605Z,100285.44
2018-09-05T17:17:25.226Z,100287.91
2018-09-05T17:19:54.932Z,100288.34
2018-09-05T17:22:24.819Z,100291.14
2018-09-05T17:24:54.609Z,100291.57
2018-09-05T17:27:24.276Z,100286.38
2018-09-05T17:29:54.099Z,100289.80
2018-09-05T17:32:23.729Z,100291.52
2018-09-05T17:34:53.624Z,100293.91
2018-09-05T17:37:23.332Z,100303.73
2018-09-05T17:39:53.013Z,100300.42
2018-09-05T17:42:23.045Z,100303.90
2018-09-05T17:44:52.768Z,100299.70
2018-09-05T17:47:22.568Z,100304.66
2018-09-05T17:49:52.364Z,100301.23
2018-09-05T17:52:22.038Z,100293.78
2018-09-05T17:54:51.681Z,100297.63
2018-09-05T17:57:21.454Z,100305.88
2018-09-05T17:59:51.097Z,100305.66
2018-09-05T18:02:20.864Z,100300.30
2018-09-05T18:04:50.532Z,100300.97
2018-09-05T18:07:20.279Z,100298.02
2018-09-05T18:09:50.048Z,100297.83
2018-09-05T18:12:19.809Z,100294.97
2018-09-05T18:14:49.555Z,100300.51
2018-09-05T18:17:19.293Z,100305.34
2018-09-05T18:19:49.058Z,100304.33
2018-09-05T18:22:18.853Z,100303.39
2018-09-05T18:24:48.630Z,100305.01
2018-09-05T18:27:18.696Z,100306.41
2018-09-05T18:29:48.430Z,100307.86
2018-09-05T18:32:18.207Z,100306.52
2018-09-05T18:34:48.033Z,100310.94
2018-09-05T18:37:17.799Z,100319.32
2018-09-05T18:39:47.467Z,100315.84
2018-09-05T18:42:17.209Z,100311.09
2018-09-05T18:44:46.844Z,100320.02
2018-09-05T18:47:16.605Z,100321.12
2018-09-05T18:49:46.352Z,100320.69
2018-09-05T18:52:16.159Z,100327.51
2018-09-05T18:54:45.960Z,100317.40
2018-09-05T18:57:15.621Z,100317.48
2018-09-05T18:59:45.388Z,100315.33
2018-09-05T19:02:15.069Z,100313.23
2018-09-05T19:04:44.717Z,100319.79
2018-09-05T19:07:14.751Z,100321.17
2018-09-05T19:09:44.421Z,100322.50
2018-09-05T19:12:14.269Z,100321.53
2018-09-05T19:14:44.013Z,100312.89
2018-09-05T19:17:13.786Z,100314.80
2018-09-05T19:19:43.472Z,100313.50
2018-09-05T19:22:13.215Z,100314.02
2018-09-05T19:24:42.860Z,100311.86
2018-09-05T19:27:12.502Z,100307.57
2018-09-05T19:29:42.092Z,100307.00
2018-09-05T19:32:11.795Z,100308.89
2018-09-05T19:34:41.468Z,100307.80
2018-09-05T19:37:11.369Z,100302.13
2018-09-05T19:39:41.197Z,100303.77
2018-09-05T19:42:11.008Z,100307.64
2018-09-05T19:44:40.998Z,100304.47
2018-09-05T19:47:11.017Z,100309.89
2018-09-05T19:49:42.068Z,100304.48
2018-09-05T19:52:12.654Z,100303.66
2018-09-05T19:54:43.598Z,100301.50
2018-09-05T19:57:19.927Z,100301.00
2018-09-05T19:59:49.666Z,100302.13
2018-09-05T20:02:19.627Z,100302.66
2018-09-05T20:04:50.907Z,100293.25
2018-09-05T20:07:20.835Z,100302.14
2018-09-05T20:09:50.542Z,100297.55
2018-09-05T20:12:20.513Z,100304.03
2018-09-05T20:14:50.387Z,100297.02
2018-09-05T20:17:20.857Z,100298.94
2018-09-05T20:19:54.938Z,100299.19
2018-09-05T20:22:24.708Z,100303.52
2018-09-05T20:24:54.499Z,100292.47
2018-09-05T20:27:24.153Z,100300.29
2018-09-05T20:29:53.894Z,100300.30
2018-09-05T20:32:23.559Z,100294.91
2018-09-05T20:34:53.233Z,100298.96
2018-09-05T20:37:22.909Z,100295.16
2018-09-05T20:39:52.560Z,100291.92
2018-09-05T20:42:22.300Z,100294.37
2018-09-05T20:44:52.029Z,100292.73
2018-09-05T20:47:21.684Z,100294.37
2018-09-05T20:49:51.340Z,100289.23
2018-09-05T20:52:21.018Z,100290.84
2018-09-05T20:54:50.723Z,100291.06
2018-09-05T20:57:20.427Z,100289.17
2018-09-05T20:59:50.077Z,100284.00
2018-09-05T21:02:19.724Z,100289.13
2018-09-05T21:04:49.413Z,100284.83
2018-09-05T21:07:19.106Z,100282.41
2018-09-05T21:09:48.778Z,100288.86
2018-09-05T21:12:18.456Z,100284.80
2018-09-05T21:14:48.105Z,100284.25
2018-09-05T21:17:17.839Z,100280.78
2018-09-05T21:19:47.587Z,100278.39
2018-09-05T21:22:18.869Z,100284.27
2018-09-05T21:24:48.854Z,100278.66
2018-09-05T21:27:18.540Z,100284.01
2018-09-05T21:29:48.261Z,100286.72
2018-09-05T21:32:17.860Z,100282.92
2018-09-05T21:34:47.508Z,100280.52
2018-09-05T21:37:17.218Z,100280.23
2018-09-05T21:39:47.320Z,100279.39
2018-09-05T21:42:16.971Z,100282.32
2018-09-05T21:44:47.036Z,100274.52
2018-09-05T21:47:16.690Z,100279.84
2018-09-05T21:49:46.711Z,100279.62
2018-09-05T21:52:16.973Z,100282.86
2018-09-05T21:54:46.734Z,100281.79
2018-09-05T21:57:16.465Z,100277.18
2018-09-05T21:59:46.343Z,100274.48
2018-09-05T22:02:15.996Z,100274.75
2018-09-05T22:04:45.688Z,100275.23
2018-09-05T22:07:15.264Z,100277.41
2018-09-05T22:09:45.277Z,100272.78
2018-09-05T22:12:15.172Z,100274.63
2018-09-05T22:14:44.767Z,100275.92
2018-09-05T22:17:14.409Z,100280.98
2018-09-05T22:19:44.010Z,100273.39
2018-09-05T22:22:13.619Z,100279.02
2018-09-05T22:24:43.221Z,100283.32
2018-09-05T22:27:12.926Z,100277.91
2018-09-05T22:29:42.636Z,100276.02
2018-09-05T22:32:12.282Z,100277.87
2018-09-05T22:34:41.862Z,100281.49
2018-09-05T22:37:12.403Z,100271.68
2018-09-05T22:39:42.127Z,100272.52
2018-09-05T22:42:13.361Z,100276.19
2018-09-05T22:44:59.969Z,100270.20
2018-09-05T22:47:54.313Z,100271.55
2018-09-05T22:53:11.797Z,100270.94
2018-09-05T22:57:02.903Z,100265.83
2018-09-05T22:59:47.723Z,100259.83
2018-09-05T23:06:49.430Z,100262.25
2018-09-05T23:09:34.821Z,100256.95
2018-09-05T23:12:25.492Z,100249.30
2018-09-05T23:15:11.916Z,100247.95
2018-09-05T23:20:37.159Z,100240.42
2018-09-05T23:23:23.667Z,100236.31
2018-09-05T23:25:53.461Z,100230.28
2018-09-05T23:28:23.121Z,100230.46
2018-09-05T23:30:52.847Z,100233.34
2018-09-05T23:33:22.962Z,100232.48
2018-09-05T23:35:52.695Z,100230.01
2018-09-05T23:38:22.469Z,100226.25
2018-09-05T23:40:52.882Z,100221.69
2018-09-05T23:43:22.852Z,100219.22
2018-09-05T23:45:52.660Z,100219.21
2018-09-05T23:48:22.667Z,100215.90
2018-09-05T23:50:52.708Z,100213.30
2018-09-05T23:53:22.449Z,100213.21
2018-09-05T23:55:52.153Z,100210.52
2018-09-05T23:58:22.189Z,100212.41
